sensor_id;sensor_type;location;lat;lon;timestamp;pressure;altitude;pressure_sealevel;temperature
71463;BMP180;59266;52.608;13.260;2023-04-24T00:02:08;99915.00;;;9.60
71463;BMP180;59266;52.608;13.260;2023-04-24T00:04:37;99918.00;;;9.60
71463;BMP180;59266;52.608;13.260;2023-04-24T00:07:07;99910.00;;;9.60
71463;BMP180;59266;52.608;13.260;2023-04-24T00:09:34;99908.00;;;9.60
71463;BMP180;59266;52.608;13.260;2023-04-24T00:12:00;99914.00;;;9.60
71463;BMP180;59266;52.608;13.260;2023-04-24T00:14:30;99911.00;;;9.60
71463;BMP180;59266;52.608;13.260;2023-04-24T00:16:58;99908.00;;;9.50
71463;BMP180;59266;52.608;13.260;2023-04-24T00:19:25;99898.00;;;9.50
71463;BMP180;59266;52.608;13.260;2023-04-24T00:21:51;99899.00;;;9.40
71463;BMP180;59266;52.608;13.260;2023-04-24T00:24:18;99889.00;;;9.50
71463;BMP180;59266;52.608;13.260;2023-04-24T00:26:48;99887.00;;;9.50
71463;BMP180;59266;52.608;13.260;2023-04-24T00:29:15;99887.00;;;9.40
71463;BMP180;59266;52.608;13.260;2023-04-24T00:31:42;99881.00;;;9.40
71463;BMP180;59266;52.608;13.260;2023-04-24T00:34:09;99877.00;;;9.40
71463;BMP180;59266;52.608;13.260;2023-04-24T00:36:38;99881.00;;;9.40
71463;BMP180;59266;52.608;13.260;2023-04-24T00:39:05;99872.00;;;9.50
71463;BMP180;59266;52.608;13.260;2023-04-24T00:41:35;99864.00;;;9.50
71463;BMP180;59266;52.608;13.260;2023-04-24T00:44:01;99869.00;;;9.40
71463;BMP180;59266;52.608;13.260;2023-04-24T00:46:30;99863.00;;;9.40
71463;BMP180;59266;52.608;13.260;2023-04-24T00:48:59;99855.00;;;9.40
71463;BMP180;59266;52.608;13.260;2023-04-24T00:51:27;99843.00;;;9.40
71463;BMP180;59266;52.608;13.260;2023-04-24T00:53:53;99849.00;;;9.40
71463;BMP180;59266;52.608;13.260;2023-04-24T00:56:20;99835.00;;;9.50
71463;BMP180;59266;52.608;13.260;2023-04-24T00:58:49;99836.00;;;9.50
71463;BMP180;59266;52.608;13.260;2023-04-24T01:01:16;99831.00;;;9.50
71463;BMP180;59266;52.608;13.260;2023-04-24T01:03:43;99826.00;;;9.50
71463;BMP180;59266;52.608;13.260;2023-04-24T01:06:12;99820.00;;;9.60
71463;BMP180;59266;52.608;13.260;2023-04-24T01:08:39;99832.00;;;9.70
71463;BMP180;59266;52.608;13.260;2023-04-24T01:11:06;99848.00;;;9.70
71463;BMP180;59266;52.608;13.260;2023-04-24T01:13:32;99850.00;;;9.80
71463;BMP180;59266;52.608;13.260;2023-04-24T01:16:00;99846.00;;;9.80
71463;BMP180;59266;52.608;13.260;2023-04-24T01:18:27;99854.00;;;9.90
71463;BMP180;59266;52.608;13.260;2023-04-24T01:20:57;99856.00;;;10.10
71463;BMP180;59266;52.608;13.260;2023-04-24T01:23:24;99848.00;;;10.20
71463;BMP180;59266;52.608;13.260;2023-04-24T01:25:53;99840.00;;;10.30
71463;BMP180;59266;52.608;13.260;2023-04-24T01:28:21;99854.00;;;10.30
71463;BMP180;59266;52.608;13.260;2023-04-24T01:30:48;99850.00;;;10.40
71463;BMP180;59266;52.608;13.260;2023-04-24T01:33:17;99845.00;;;10.50
71463;BMP180;59266;52.608;13.260;2023-04-24T01:35:45;99835.00;;;10.50
71463;BMP180;59266;52.608;13.260;2023-04-24T01:38:12;99837.00;;;10.50
71463;BMP180;59266;52.608;13.260;2023-04-24T01:40:40;99841.00;;;10.50
71463;BMP180;59266;52.608;13.260;2023-04-24T01:43:08;99844.00;;;10.70
71463;BMP180;59266;52.608;13.260;2023-04-24T01:45:35;99839.00;;;10.60
71463;BMP180;59266;52.608;13.260;2023-04-24T01:48:03;99840.00;;;10.70
71463;BMP180;59266;52.608;13.260;2023-04-24T01:50:29;99836.00;;;10.80
71463;BMP180;59266;52.608;13.260;2023-04-24T01:52:59;99837.00;;;10.90
71463;BMP180;59266;52.608;13.260;2023-04-24T01:55:27;99832.00;;;10.80
71463;BMP180;59266;52.608;13.260;2023-04-24T01:57:57;99822.00;;;10.80
71463;BMP180;59266;52.608;13.260;2023-04-24T02:00:27;99810.00;;;10.90
71463;BMP180;59266;52.608;13.260;2023-04-24T02:02:53;99807.00;;;10.90
71463;BMP180;59266;52.608;13.260;2023-04-24T02:05:20;99807.00;;;11.00
71463;BMP180;59266;52.608;13.260;2023-04-24T02:07:47;99810.00;;;10.90
71463;BMP180;59266;52.608;13.260;2023-04-24T02:10:14;99818.00;;;10.90
71463;BMP180;59266;52.608;13.260;2023-04-24T02:12:40;99819.00;;;11.00
71463;BMP180;59266;52.608;13.260;2023-04-24T02:15:07;99812.00;;;11.00
71463;BMP180;59266;52.608;13.260;2023-04-24T02:17:35;99804.00;;;10.80
71463;BMP180;59266;52.608;13.260;2023-04-24T02:20:01;99817.00;;;10.80
71463;BMP180;59266;52.608;13.260;2023-04-24T02:22:28;99812.00;;;10.80
71463;BMP180;59266;52.608;13.260;2023-04-24T02:24:56;99800.00;;;10.80
71463;BMP180;59266;52.608;13.260;2023-04-24T02:27:24;99801.00;;;10.80
71463;BMP180;59266;52.608;13.260;2023-04-24T02:29:50;99795.00;;;10.70
71463;BMP180;59266;52.608;13.260;2023-04-24T02:32:17;99791.00;;;10.80
71463;BMP180;59266;52.608;13.260;2023-04-24T02:34:46;99791.00;;;10.80
71463;BMP180;59266;52.608;13.260;2023-04-24T02:37:13;99798.00;;;10.70
71463;BMP180;59266;52.608;13.260;2023-04-24T02:39:42;99794.00;;;10.70
71463;BMP180;59266;52.608;13.260;2023-04-24T02:42:09;99783.00;;;10.80
71463;BMP180;59266;52.608;13.260;2023-04-24T02:44:36;99778.00;;;10.60
71463;BMP180;59266;52.608;13.260;2023-04-24T02:47:07;99783.00;;;10.60
71463;BMP180;59266;52.608;13.260;2023-04-24T02:49:35;99782.00;;;10.70
71463;BMP180;59266;52.608;13.260;2023-04-24T02:52:02;99781.00;;;10.60
71463;BMP180;59266;52.608;13.260;2023-04-24T02:54:31;99788.00;;;10.70
71463;BMP180;59266;52.608;13.260;2023-04-24T02:56:58;99780.00;;;10.70
71463;BMP180;59266;52.608;13.260;2023-04-24T02:59:24;99781.00;;;10.70
71463;BMP180;59266;52.608;13.260;2023-04-24T03:01:53;99778.00;;;10.70
71463;BMP180;59266;52.608;13.260;2023-04-24T03:04:22;99783.00;;;10.80
71463;BMP180;59266;52.608;13.260;2023-04-24T03:06:50;99777.00;;;10.80
71463;BMP180;59266;52.608;13.260;2023-04-24T03:09:19;99788.00;;;10.90
71463;BMP180;59266;52.608;13.260;2023-04-24T03:11:47;99789.00;;;10.80
71463;BMP180;59266;52.608;13.260;2023-04-24T03:14:17;99795.00;;;10.90
71463;BMP180;59266;52.608;13.260;2023-04-24T03:16:44;99796.00;;;10.90
71463;BMP180;59266;52.608;13.260;2023-04-24T03:19:11;99799.00;;;10.90
71463;BMP180;59266;52.608;13.260;2023-04-24T03:21:38;99797.00;;;10.90
71463;BMP180;59266;52.608;13.260;2023-04-24T03:24:08;99791.00;;;11.00
71463;BMP180;59266;52.608;13.260;2023-04-24T03:26:35;99795.00;;;11.10
71463;BMP180;59266;52.608;13.260;2023-04-24T03:29:02;99805.00;;;11.10
71463;BMP180;59266;52.608;13.260;2023-04-24T03:31:30;99798.00;;;11.10
71463;BMP180;59266;52.608;13.260;2023-04-24T03:33:58;99802.00;;;11.20
71463;BMP180;59266;52.608;13.260;2023-04-24T03:36:26;99804.00;;;11.20
71463;BMP180;59266;52.608;13.260;2023-04-24T03:38:52;99800.00;;;11.30
71463;BMP180;59266;52.608;13.260;2023-04-24T03:41:19;99798.00;;;11.30
71463;BMP180;59266;52.608;13.260;2023-04-24T03:43:46;99798.00;;;11.30
71463;BMP180;59266;52.608;13.260;2023-04-24T03:46:14;99790.00;;;11.30
71463;BMP180;59266;52.608;13.260;2023-04-24T03:48:44;99792.00;;;11.40
71463;BMP180;59266;52.608;13.260;2023-04-24T03:51:10;99804.00;;;11.40
71463;BMP180;59266;52.608;13.260;2023-04-24T03:53:39;99799.00;;;11.50
71463;BMP180;59266;52.608;13.260;2023-04-24T03:56:06;99792.00;;;11.50
71463;BMP180;59266;52.608;13.260;2023-04-24T03:58:35;99794.00;;;11.60
71463;BMP180;59266;52.608;13.260;2023-04-24T04:01:05;99791.00;;;11.60
71463;BMP180;59266;52.608;13.260;2023-04-24T04:03:32;99801.00;;;11.60
71463;BMP180;59266;52.608;13.260;2023-04-24T04:05:59;99790.00;;;11.60
71463;BMP180;59266;52.608;13.260;2023-04-24T04:08:26;99788.00;;;11.60
71463;BMP180;59266;52.608;13.260;2023-04-24T04:10:53;99788.00;;;11.60
71463;BMP180;59266;52.608;13.260;2023-04-24T04:13:20;99788.00;;;11.60
71463;BMP180;59266;52.608;13.260;2023-04-24T04:15:46;99785.00;;;11.50
71463;BMP180;59266;52.608;13.260;2023-04-24T04:18:13;99784.00;;;11.60
71463;BMP180;59266;52.608;13.260;2023-04-24T04:20:40;99779.00;;;11.50
71463;BMP180;59266;52.608;13.260;2023-04-24T04:23:06;99788.00;;;11.50
71463;BMP180;59266;52.608;13.260;2023-04-24T04:25:33;99784.00;;;11.40
71463;BMP180;59266;52.608;13.260;2023-04-24T04:27:59;99786.00;;;11.40
71463;BMP180;59266;52.608;13.260;2023-04-24T04:30:26;99784.00;;;11.40
71463;BMP180;59266;52.608;13.260;2023-04-24T04:32:53;99788.00;;;11.20
71463;BMP180;59266;52.608;13.260;2023-04-24T04:35:20;99788.00;;;11.20
71463;BMP180;59266;52.608;13.260;2023-04-24T04:37:48;99785.00;;;11.30
71463;BMP180;59266;52.608;13.260;2023-04-24T04:40:15;99786.00;;;11.30
71463;BMP180;59266;52.608;13.260;2023-04-24T04:42:42;99782.00;;;11.30
71463;BMP180;59266;52.608;13.260;2023-04-24T04:45:09;99782.00;;;11.40
71463;BMP180;59266;52.608;13.260;2023-04-24T04:47:35;99789.00;;;11.40
71463;BMP180;59266;52.608;13.260;2023-04-24T04:50:02;99791.00;;;11.40
71463;BMP180;59266;52.608;13.260;2023-04-24T04:52:30;99797.00;;;11.40
71463;BMP180;59266;52.608;13.260;2023-04-24T04:54:59;99793.00;;;11.50
71463;BMP180;59266;52.608;13.260;2023-04-24T04:57:26;99799.00;;;11.60
71463;BMP180;59266;52.608;13.260;2023-04-24T04:59:53;99797.00;;;11.60
71463;BMP180;59266;52.608;13.260;2023-04-24T05:02:21;99800.00;;;11.70
71463;BMP180;59266;52.608;13.260;2023-04-24T05:04:49;99812.00;;;11.80
71463;BMP180;59266;52.608;13.260;2023-04-24T05:07:15;99811.00;;;12.00
71463;BMP180;59266;52.608;13.260;2023-04-24T05:09:42;99803.00;;;12.00
71463;BMP180;59266;52.608;13.260;2023-04-24T05:12:09;99818.00;;;12.10
71463;BMP180;59266;52.608;13.260;2023-04-24T05:14:36;99804.00;;;12.10
71463;BMP180;59266;52.608;13.260;2023-04-24T05:17:02;99806.00;;;12.20
71463;BMP180;59266;52.608;13.260;2023-04-24T05:19:29;99806.00;;;12.20
71463;BMP180;59266;52.608;13.260;2023-04-24T05:21:56;99801.00;;;12.40
71463;BMP180;59266;52.608;13.260;2023-04-24T05:24:23;99810.00;;;12.40
71463;BMP180;59266;52.608;13.260;2023-04-24T05:26:50;99805.00;;;12.50
71463;BMP180;59266;52.608;13.260;2023-04-24T05:29:17;99819.00;;;12.50
71463;BMP180;59266;52.608;13.260;2023-04-24T05:31:46;99822.00;;;12.70
71463;BMP180;59266;52.608;13.260;2023-04-24T05:34:14;99819.00;;;12.60
71463;BMP180;59266;52.608;13.260;2023-04-24T05:36:42;99822.00;;;12.60
71463;BMP180;59266;52.608;13.260;2023-04-24T05:39:10;99828.00;;;12.60
71463;BMP180;59266;52.608;13.260;2023-04-24T05:41:39;99821.00;;;12.80
71463;BMP180;59266;52.608;13.260;2023-04-24T05:44:06;99817.00;;;12.70
71463;BMP180;59266;52.608;13.260;2023-04-24T05:46:33;99820.00;;;12.90
71463;BMP180;59266;52.608;13.260;2023-04-24T05:49:00;99822.00;;;12.70
71463;BMP180;59266;52.608;13.260;2023-04-24T05:51:28;99826.00;;;12.80
71463;BMP180;59266;52.608;13.260;2023-04-24T05:53:55;99829.00;;;12.80
71463;BMP180;59266;52.608;13.260;2023-04-24T05:56:22;99824.00;;;12.90
71463;BMP180;59266;52.608;13.260;2023-04-24T05:58:49;99828.00;;;13.10
71463;BMP180;59266;52.608;13.260;2023-04-24T06:01:16;99834.00;;;13.20
71463;BMP180;59266;52.608;13.260;2023-04-24T06:03:44;99820.00;;;13.70
71463;BMP180;59266;52.608;13.260;2023-04-24T06:06:11;99827.00;;;14.10
71463;BMP180;59266;52.608;13.260;2023-04-24T06:08:37;99805.00;;;14.60
71463;BMP180;59266;52.608;13.260;2023-04-24T06:11:05;99804.00;;;15.50
71463;BMP180;59266;52.608;13.260;2023-04-24T06:13:32;99822.00;;;15.50
71463;BMP180;59266;52.608;13.260;2023-04-24T06:15:59;99802.00;;;15.90
71463;BMP180;59266;52.608;13.260;2023-04-24T06:18:27;99806.00;;;17.30
71463;BMP180;59266;52.608;13.260;2023-04-24T06:20:54;99799.00;;;18.20
71463;BMP180;59266;52.608;13.260;2023-04-24T06:23:21;99786.00;;;20.70
71463;BMP180;59266;52.608;13.260;2023-04-24T06:25:48;99783.00;;;22.30
71463;BMP180;59266;52.608;13.260;2023-04-24T06:28:14;99779.00;;;22.80
71463;BMP180;59266;52.608;13.260;2023-04-24T06:30:42;99782.00;;;23.20
71463;BMP180;59266;52.608;13.260;2023-04-24T06:33:09;99794.00;;;23.60
71463;BMP180;59266;52.608;13.260;2023-04-24T06:35:47;99798.00;;;24.10
71463;BMP180;59266;52.608;13.260;2023-04-24T06:38:14;99794.00;;;23.00
71463;BMP180;59266;52.608;13.260;2023-04-24T06:40:40;99785.00;;;24.40
71463;BMP180;59266;52.608;13.260;2023-04-24T06:43:08;99769.00;;;24.50
71463;BMP180;59266;52.608;13.260;2023-04-24T06:45:35;99813.00;;;25.10
71463;BMP180;59266;52.608;13.260;2023-04-24T06:48:02;99838.00;;;25.80
71463;BMP180;59266;52.608;13.260;2023-04-24T06:50:31;99845.00;;;24.00
71463;BMP180;59266;52.608;13.260;2023-04-24T06:53:00;99854.00;;;22.00
71463;BMP180;59266;52.608;13.260;2023-04-24T06:55:27;99828.00;;;22.80
71463;BMP180;59266;52.608;13.260;2023-04-24T06:57:55;99833.00;;;25.20
71463;BMP180;59266;52.608;13.260;2023-04-24T07:00:22;99844.00;;;24.00
71463;BMP180;59266;52.608;13.260;2023-04-24T07:02:50;99851.00;;;21.50
71463;BMP180;59266;52.608;13.260;2023-04-24T07:05:17;99849.00;;;20.60
71463;BMP180;59266;52.608;13.260;2023-04-24T07:07:47;99845.00;;;20.70
71463;BMP180;59266;52.608;13.260;2023-04-24T07:10:13;99836.00;;;20.30
71463;BMP180;59266;52.608;13.260;2023-04-24T07:12:40;99839.00;;;20.80
71463;BMP180;59266;52.608;13.260;2023-04-24T07:15:08;99832.00;;;21.30
71463;BMP180;59266;52.608;13.260;2023-04-24T07:17:34;99830.00;;;22.80
71463;BMP180;59266;52.608;13.260;2023-04-24T07:20:01;99847.00;;;22.60
71463;BMP180;59266;52.608;13.260;2023-04-24T07:22:28;99827.00;;;24.60
71463;BMP180;59266;52.608;13.260;2023-04-24T07:24:57;99830.00;;;26.40
71463;BMP180;59266;52.608;13.260;2023-04-24T07:27:24;99829.00;;;26.80
71463;BMP180;59266;52.608;13.260;2023-04-24T07:29:51;99826.00;;;28.20
71463;BMP180;59266;52.608;13.260;2023-04-24T07:32:22;99830.00;;;29.20
71463;BMP180;59266;52.608;13.260;2023-04-24T07:34:50;99842.00;;;27.60
71463;BMP180;59266;52.608;13.260;2023-04-24T07:37:17;99839.00;;;28.50
71463;BMP180;59266;52.608;13.260;2023-04-24T07:39:44;99858.00;;;28.60
71463;BMP180;59266;52.608;13.260;2023-04-24T07:42:10;99832.00;;;28.60
71463;BMP180;59266;52.608;13.260;2023-04-24T07:44:37;99841.00;;;30.10
71463;BMP180;59266;52.608;13.260;2023-04-24T07:47:04;99834.00;;;31.30
71463;BMP180;59266;52.608;13.260;2023-04-24T07:49:31;99826.00;;;32.20
71463;BMP180;59266;52.608;13.260;2023-04-24T07:51:57;99829.00;;;30.80
71463;BMP180;59266;52.608;13.260;2023-04-24T07:54:27;99827.00;;;29.20
71463;BMP180;59266;52.608;13.260;2023-04-24T07:56:53;99840.00;;;31.30
71463;BMP180;59266;52.608;13.260;2023-04-24T07:59:20;99842.00;;;29.50
71463;BMP180;59266;52.608;13.260;2023-04-24T08:01:47;99849.00;;;29.60
71463;BMP180;59266;52.608;13.260;2023-04-24T08:04:14;99841.00;;;29.20
71463;BMP180;59266;52.608;13.260;2023-04-24T08:06:41;99844.00;;;29.00
71463;BMP180;59266;52.608;13.260;2023-04-24T08:09:07;99842.00;;;27.10
71463;BMP180;59266;52.608;13.260;2023-04-24T08:11:34;99867.00;;;27.30
71463;BMP180;59266;52.608;13.260;2023-04-24T08:14:00;99860.00;;;27.70
71463;BMP180;59266;52.608;13.260;2023-04-24T08:16:32;99850.00;;;25.80
71463;BMP180;59266;52.608;13.260;2023-04-24T08:19:00;99846.00;;;28.20
71463;BMP180;59266;52.608;13.260;2023-04-24T08:21:27;99856.00;;;27.20
71463;BMP180;59266;52.608;13.260;2023-04-24T08:23:55;99856.00;;;25.90
71463;BMP180;59266;52.608;13.260;2023-04-24T08:26:22;99835.00;;;25.50
71463;BMP180;59266;52.608;13.260;2023-04-24T08:28:49;99843.00;;;27.20
71463;BMP180;59266;52.608;13.260;2023-04-24T08:31:15;99860.00;;;26.40
71463;BMP180;59266;52.608;13.260;2023-04-24T08:33:42;99853.00;;;25.20
71463;BMP180;59266;52.608;13.260;2023-04-24T08:36:11;99857.00;;;23.80
71463;BMP180;59266;52.608;13.260;2023-04-24T08:38:37;99847.00;;;23.60
71463;BMP180;59266;52.608;13.260;2023-04-24T08:41:07;99857.00;;;24.00
71463;BMP180;59266;52.608;13.260;2023-04-24T08:43:35;99851.00;;;23.20
71463;BMP180;59266;52.608;13.260;2023-04-24T08:46:03;99857.00;;;24.10
71463;BMP180;59266;52.608;13.260;2023-04-24T08:48:37;99868.00;;;22.40
71463;BMP180;59266;52.608;13.260;2023-04-24T08:51:07;99858.00;;;22.60
71463;BMP180;59266;52.608;13.260;2023-04-24T08:53:34;99867.00;;;22.50
71463;BMP180;59266;52.608;13.260;2023-04-24T08:56:04;99860.00;;;22.10
71463;BMP180;59266;52.608;13.260;2023-04-24T08:58:31;99852.00;;;22.70
71463;BMP180;59266;52.608;13.260;2023-04-24T09:00:58;99859.00;;;23.10
71463;BMP180;59266;52.608;13.260;2023-04-24T09:03:27;99866.00;;;23.30
71463;BMP180;59266;52.608;13.260;2023-04-24T09:05:55;99860.00;;;22.50
71463;BMP180;59266;52.608;13.260;2023-04-24T09:08:25;99864.00;;;22.10
71463;BMP180;59266;52.608;13.260;2023-04-24T09:10:52;99868.00;;;20.70
71463;BMP180;59266;52.608;13.260;2023-04-24T09:13:20;99870.00;;;20.30
71463;BMP180;59266;52.608;13.260;2023-04-24T09:15:47;99873.00;;;20.40
71463;BMP180;59266;52.608;13.260;2023-04-24T09:18:15;99865.00;;;20.40
71463;BMP180;59266;52.608;13.260;2023-04-24T09:23:31;99855.00;;;21.20
71463;BMP180;59266;52.608;13.260;2023-04-24T09:26:01;99868.00;;;22.20
71463;BMP180;59266;52.608;13.260;2023-04-24T09:28:38;99872.00;;;21.90
71463;BMP180;59266;52.608;13.260;2023-04-24T09:31:08;99871.00;;;21.00
71463;BMP180;59266;52.608;13.260;2023-04-24T09:33:35;99856.00;;;20.50
71463;BMP180;59266;52.608;13.260;2023-04-24T09:36:04;99849.00;;;22.60
71463;BMP180;59266;52.608;13.260;2023-04-24T09:38:38;99857.00;;;23.50
71463;BMP180;59266;52.608;13.260;2023-04-24T09:41:06;99875.00;;;24.00
71463;BMP180;59266;52.608;13.260;2023-04-24T09:43:34;99881.00;;;21.20
71463;BMP180;59266;52.608;13.260;2023-04-24T09:46:07;99883.00;;;20.00
71463;BMP180;59266;52.608;13.260;2023-04-24T09:48:35;99886.00;;;19.50
71463;BMP180;59266;52.608;13.260;2023-04-24T09:51:05;99880.00;;;20.10
71463;BMP180;59266;52.608;13.260;2023-04-24T09:53:38;99878.00;;;19.90
71463;BMP180;59266;52.608;13.260;2023-04-24T09:56:09;99878.00;;;19.60
71463;BMP180;59266;52.608;13.260;2023-04-24T09:58:36;99876.00;;;19.90
71463;BMP180;59266;52.608;13.260;2023-04-24T10:01:03;99878.00;;;20.40
71463;BMP180;59266;52.608;13.260;2023-04-24T10:03:31;99870.00;;;20.80
71463;BMP180;59266;52.608;13.260;2023-04-24T10:06:00;99873.00;;;20.30
71463;BMP180;59266;52.608;13.260;2023-04-24T10:08:33;99870.00;;;20.40
71463;BMP180;59266;52.608;13.260;2023-04-24T10:11:01;99870.00;;;20.00
71463;BMP180;59266;52.608;13.260;2023-04-24T10:13:28;99868.00;;;19.10
71463;BMP180;59266;52.608;13.260;2023-04-24T10:15:56;99866.00;;;19.00
71463;BMP180;59266;52.608;13.260;2023-04-24T10:18:23;99866.00;;;19.30
71463;BMP180;59266;52.608;13.260;2023-04-24T10:20:50;99866.00;;;19.70
71463;BMP180;59266;52.608;13.260;2023-04-24T10:23:18;99868.00;;;20.50
71463;BMP180;59266;52.608;13.260;2023-04-24T10:25:46;99861.00;;;19.70
71463;BMP180;59266;52.608;13.260;2023-04-24T10:28:13;99863.00;;;20.20
71463;BMP180;59266;52.608;13.260;2023-04-24T10:30:43;99868.00;;;19.40
71463;BMP180;59266;52.608;13.260;2023-04-24T10:33:10;99873.00;;;19.60
71463;BMP180;59266;52.608;13.260;2023-04-24T10:35:44;99873.00;;;19.40
71463;BMP180;59266;52.608;13.260;2023-04-24T10:38:13;99876.00;;;18.60
71463;BMP180;59266;52.608;13.260;2023-04-24T10:40:42;99868.00;;;18.60
71463;BMP180;59266;52.608;13.260;2023-04-24T10:43:09;99864.00;;;18.80
71463;BMP180;59266;52.608;13.260;2023-04-24T10:45:38;99849.00;;;18.80
71463;BMP180;59266;52.608;13.260;2023-04-24T10:48:06;99850.00;;;19.00
71463;BMP180;59266;52.608;13.260;2023-04-24T10:50:47;99835.00;;;19.10
71463;BMP180;59266;52.608;13.260;2023-04-24T10:53:17;99825.00;;;19.70
71463;BMP180;59266;52.608;13.260;2023-04-24T10:58:11;99833.00;;;19.70
71463;BMP180;59266;52.608;13.260;2023-04-24T11:00:39;99851.00;;;19.40
71463;BMP180;59266;52.608;13.260;2023-04-24T11:03:23;99851.00;;;19.60
71463;BMP180;59266;52.608;13.260;2023-04-24T11:05:55;99850.00;;;20.10
71463;BMP180;59266;52.608;13.260;2023-04-24T11:08:30;99861.00;;;19.80
71463;BMP180;59266;52.608;13.260;2023-04-24T11:16:53;99861.00;;;19.10
71463;BMP180;59266;52.608;13.260;2023-04-24T11:19:23;99860.00;;;19.50
71463;BMP180;59266;52.608;13.260;2023-04-24T11:24:29;99854.00;;;20.10
71463;BMP180;59266;52.608;13.260;2023-04-24T11:26:58;99851.00;;;19.70
71463;BMP180;59266;52.608;13.260;2023-04-24T11:32:39;99850.00;;;19.30
71463;BMP180;59266;52.608;13.260;2023-04-24T11:35:15;99845.00;;;19.00
71463;BMP180;59266;52.608;13.260;2023-04-24T11:37:49;99833.00;;;20.30
71463;BMP180;59266;52.608;13.260;2023-04-24T11:40:38;99825.00;;;21.50
71463;BMP180;59266;52.608;13.260;2023-04-24T11:43:06;99823.00;;;21.60
71463;BMP180;59266;52.608;13.260;2023-04-24T11:45:34;99821.00;;;21.90
71463;BMP180;59266;52.608;13.260;2023-04-24T11:48:02;99811.00;;;22.40
71463;BMP180;59266;52.608;13.260;2023-04-24T11:50:30;99842.00;;;22.00
71463;BMP180;59266;52.608;13.260;2023-04-24T11:52:57;99829.00;;;22.10
71463;BMP180;59266;52.608;13.260;2023-04-24T11:55:26;99832.00;;;21.90
71463;BMP180;59266;52.608;13.260;2023-04-24T11:57:55;99841.00;;;21.80
71463;BMP180;59266;52.608;13.260;2023-04-24T12:00:30;99836.00;;;20.60
71463;BMP180;59266;52.608;13.260;2023-04-24T12:03:08;99828.00;;;20.40
71463;BMP180;59266;52.608;13.260;2023-04-24T12:05:35;99836.00;;;20.00
71463;BMP180;59266;52.608;13.260;2023-04-24T12:08:02;99831.00;;;19.70
71463;BMP180;59266;52.608;13.260;2023-04-24T12:10:32;99828.00;;;19.60
71463;BMP180;59266;52.608;13.260;2023-04-24T12:12:59;99839.00;;;20.00
71463;BMP180;59266;52.608;13.260;2023-04-24T12:15:27;99828.00;;;20.20
71463;BMP180;59266;52.608;13.260;2023-04-24T12:17:55;99826.00;;;19.70
71463;BMP180;59266;52.608;13.260;2023-04-24T12:20:27;99826.00;;;19.50
71463;BMP180;59266;52.608;13.260;2023-04-24T12:22:56;99829.00;;;19.70
71463;BMP180;59266;52.608;13.260;2023-04-24T12:25:25;99830.00;;;19.90
71463;BMP180;59266;52.608;13.260;2023-04-24T12:27:54;99825.00;;;20.40
71463;BMP180;59266;52.608;13.260;2023-04-24T12:30:26;99820.00;;;19.90
71463;BMP180;59266;52.608;13.260;2023-04-24T12:32:57;99828.00;;;19.50
71463;BMP180;59266;52.608;13.260;2023-04-24T12:35:27;99828.00;;;19.00
71463;BMP180;59266;52.608;13.260;2023-04-24T12:38:08;99800.00;;;19.00
71463;BMP180;59266;52.608;13.260;2023-04-24T12:40:35;99842.00;;;19.20
71463;BMP180;59266;52.608;13.260;2023-04-24T12:43:02;99842.00;;;18.30
71463;BMP180;59266;52.608;13.260;2023-04-24T12:45:28;99841.00;;;18.30
71463;BMP180;59266;52.608;13.260;2023-04-24T12:47:55;99849.00;;;18.50
71463;BMP180;59266;52.608;13.260;2023-04-24T12:50:22;99837.00;;;18.20
71463;BMP180;59266;52.608;13.260;2023-04-24T12:52:48;99841.00;;;18.30
71463;BMP180;59266;52.608;13.260;2023-04-24T12:55:15;99829.00;;;18.10
71463;BMP180;59266;52.608;13.260;2023-04-24T12:57:42;99821.00;;;19.10
71463;BMP180;59266;52.608;13.260;2023-04-24T13:00:11;99820.00;;;19.60
71463;BMP180;59266;52.608;13.260;2023-04-24T13:02:42;99831.00;;;20.00
71463;BMP180;59266;52.608;13.260;2023-04-24T13:05:12;99831.00;;;20.10
71463;BMP180;59266;52.608;13.260;2023-04-24T13:07:40;99839.00;;;19.30
71463;BMP180;59266;52.608;13.260;2023-04-24T13:10:07;99837.00;;;18.90
71463;BMP180;59266;52.608;13.260;2023-04-24T13:12:34;99843.00;;;18.40
71463;BMP180;59266;52.608;13.260;2023-04-24T13:15:01;99840.00;;;18.70
71463;BMP180;59266;52.608;13.260;2023-04-24T13:17:29;99838.00;;;18.80
71463;BMP180;59266;52.608;13.260;2023-04-24T13:19:57;99847.00;;;18.50
71463;BMP180;59266;52.608;13.260;2023-04-24T13:22:24;99818.00;;;19.10
71463;BMP180;59266;52.608;13.260;2023-04-24T13:24:51;99827.00;;;19.60
71463;BMP180;59266;52.608;13.260;2023-04-24T13:27:18;99811.00;;;20.50
71463;BMP180;59266;52.608;13.260;2023-04-24T13:29:45;99817.00;;;20.50
71463;BMP180;59266;52.608;13.260;2023-04-24T13:32:12;99799.00;;;21.20
71463;BMP180;59266;52.608;13.260;2023-04-24T13:34:39;99799.00;;;21.80
71463;BMP180;59266;52.608;13.260;2023-04-24T13:37:05;99798.00;;;21.60
71463;BMP180;59266;52.608;13.260;2023-04-24T13:39:32;99799.00;;;22.00
71463;BMP180;59266;52.608;13.260;2023-04-24T13:41:59;99801.00;;;21.60
71463;BMP180;59266;52.608;13.260;2023-04-24T13:44:31;99795.00;;;20.70
71463;BMP180;59266;52.608;13.260;2023-04-24T13:46:58;99823.00;;;21.00
71463;BMP180;59266;52.608;13.260;2023-04-24T13:49:26;99810.00;;;20.20
71463;BMP180;59266;52.608;13.260;2023-04-24T13:51:55;99818.00;;;20.10
71463;BMP180;59266;52.608;13.260;2023-04-24T13:54:22;99809.00;;;19.20
71463;BMP180;59266;52.608;13.260;2023-04-24T13:56:52;99822.00;;;19.00
71463;BMP180;59266;52.608;13.260;2023-04-24T13:59:21;99803.00;;;19.10
71463;BMP180;59266;52.608;13.260;2023-04-24T14:01:48;99805.00;;;19.10
71463;BMP180;59266;52.608;13.260;2023-04-24T14:04:15;99812.00;;;20.10
71463;BMP180;59266;52.608;13.260;2023-04-24T14:06:43;99802.00;;;19.40
71463;BMP180;59266;52.608;13.260;2023-04-24T14:09:10;99802.00;;;19.70
71463;BMP180;59266;52.608;13.260;2023-04-24T14:11:36;99806.00;;;19.90
71463;BMP180;59266;52.608;13.260;2023-04-24T14:14:03;99809.00;;;19.80
71463;BMP180;59266;52.608;13.260;2023-04-24T14:16:30;99775.00;;;20.70
71463;BMP180;59266;52.608;13.260;2023-04-24T14:18:57;99802.00;;;21.40